Time;durP1;ratioP1;P1;durP2;ratioP2;P2;SDS_P1;SDS_P2;PMS_P1;PMS_P2;Temp;Humidity;BMP_temperature;BMP_pressure;BME280_temperature;BME280_humidity;BME280_pressure;Samples;Min_cycle;Max_cycle;Signal;HPM_P1;HPM_P2
2022/06/21 00:00:26;;;;;;;1.85;0.10;;;30.50;34.00;;;;;;5031602;28;20041;-55
2022/06/21 00:02:59;;;;;;;1.67;0.10;;;30.40;34.20;;;;;;5036218;28;20399;-57
2022/06/21 00:05:31;;;;;;;2.15;0.47;;;30.20;34.30;;;;;;5035904;28;20037;-58
2022/06/21 00:07:58;;;;;;;0.73;0.52;;;30.10;34.50;;;;;;5038157;28;20483;-58
2022/06/21 00:10:25;;;;;;;2.17;0.20;;;30.00;34.70;;;;;;5034566;28;20034;-56
2022/06/21 00:12:52;;;;;;;1.58;0.10;;;29.90;34.90;;;;;;5038782;28;20045;-53
2022/06/21 00:15:19;;;;;;;1.38;0.10;;;29.80;35.10;;;;;;5030227;28;20052;-58
2022/06/21 00:17:49;;;;;;;1.20;0.20;;;29.60;35.10;;;;;;5038320;28;20120;-57
2022/06/21 00:20:21;;;;;;;2.50;0.10;;;29.50;35.30;;;;;;5037151;28;20041;-56
2022/06/21 00:22:49;;;;;;;2.30;0.10;;;29.50;35.40;;;;;;5039455;28;20056;-56
2022/06/21 00:25:20;;;;;;;1.15;0.10;;;29.40;35.70;;;;;;5036655;28;20033;-58
2022/06/21 00:27:48;;;;;;;0.63;0.15;;;29.30;35.70;;;;;;5033015;28;20124;-53
2022/06/21 00:30:16;;;;;;;1.17;0.30;;;29.20;35.90;;;;;;5032470;28;20089;-57
2022/06/21 00:32:44;;;;;;;2.85;0.30;;;29.10;36.00;;;;;;5034214;28;20100;-58
2022/06/21 00:35:17;;;;;;;0.82;0.22;;;29.10;36.00;;;;;;5036650;28;20377;-56
2022/06/21 00:37:46;;;;;;;2.03;0.40;;;29.00;36.30;;;;;;5032976;28;20502;-56
2022/06/21 00:40:20;;;;;;;0.75;0.10;;;28.90;36.30;;;;;;5032619;28;20800;-55
2022/06/21 00:42:53;;;;;;;1.30;0.38;;;28.90;36.50;;;;;;5040550;28;20119;-55
2022/06/21 00:45:27;;;;;;;0.95;0.10;;;28.80;36.50;;;;;;5027099;28;20037;-55
2022/06/21 00:47:58;;;;;;;0.40;0.20;;;28.80;36.80;;;;;;5030920;28;20041;-58
2022/06/21 00:50:30;;;;;;;4.03;1.23;;;28.70;36.90;;;;;;5042628;28;20041;-57
2022/06/21 00:53:03;;;;;;;0.73;0.40;;;28.60;36.80;;;;;;5041112;28;20492;-57
2022/06/21 00:55:45;;;;;;;1.15;0.30;;;28.60;37.00;;;;;;5037415;28;20095;-58
2022/06/21 00:58:15;;;;;;;1.42;0.55;;;28.50;37.10;;;;;;5037716;28;20049;-57
2022/06/21 01:00:53;;;;;;;1.45;0.30;;;28.40;37.20;;;;;;5033367;28;20043;-57
2022/06/21 01:03:23;;;;;;;1.17;0.20;;;28.40;37.20;;;;;;5028145;28;20068;-58
2022/06/21 01:05:52;;;;;;;0.77;0.30;;;28.30;37.30;;;;;;5045481;28;20048;-57
2022/06/21 01:08:25;;;;;;;1.17;0.50;;;28.30;37.50;;;;;;5037165;28;20125;-54
2022/06/21 01:10:57;;;;;;;1.40;0.32;;;28.20;37.50;;;;;;5040665;28;20482;-58
2022/06/21 01:13:30;;;;;;;0.40;0.40;;;28.20;37.60;;;;;;5037645;28;20132;-57
2022/06/21 01:15:58;;;;;;;2.08;0.32;;;28.20;37.70;;;;;;5037238;28;20148;-58
2022/06/21 01:18:26;;;;;;;1.65;0.38;;;28.10;37.70;;;;;;5044674;28;20751;-56
2022/06/21 01:20:56;;;;;;;0.43;0.20;;;28.10;37.80;;;;;;5038234;28;20133;-57
2022/06/21 01:23:36;;;;;;;1.85;0.30;;;28.00;37.70;;;;;;5040815;28;20059;-58
2022/06/21 01:26:17;;;;;;;1.58;0.20;;;28.00;37.90;;;;;;5034118;28;20076;-58
2022/06/21 01:28:46;;;;;;;2.30;0.32;;;28.00;38.00;;;;;;5036762;28;20041;-57
2022/06/21 01:31:14;;;;;;;0.80;0.50;;;27.90;38.00;;;;;;5034759;28;20069;-57
2022/06/21 01:33:42;;;;;;;4.18;0.40;;;27.90;38.00;;;;;;5041126;28;20034;-56
2022/06/21 01:36:14;;;;;;;1.92;0.60;;;27.90;38.10;;;;;;5030680;28;20456;-58
2022/06/21 01:38:44;;;;;;;1.00;0.55;;;27.80;38.10;;;;;;5042581;28;20116;-57
2022/06/21 01:41:16;;;;;;;1.48;0.30;;;27.80;38.20;;;;;;5043772;28;20033;-57
2022/06/21 01:43:47;;;;;;;0.88;0.15;;;27.80;38.50;;;;;;5043159;28;20113;-53
2022/06/21 01:46:18;;;;;;;1.17;0.10;;;27.70;38.30;;;;;;5043796;28;20129;-59
2022/06/21 01:48:49;;;;;;;0.50;0.10;;;27.70;38.40;;;;;;5033382;28;20110;-57
2022/06/21 01:51:22;;;;;;;0.60;0.55;;;27.70;38.40;;;;;;5036956;28;20557;-57
2022/06/21 01:53:49;;;;;;;2.88;0.40;;;27.70;38.50;;;;;;5030934;28;20474;-56
2022/06/21 01:56:21;;;;;;;0.43;0.22;;;27.60;38.50;;;;;;5036951;28;20048;-58
2022/06/21 01:58:54;;;;;;;2.15;0.50;;;27.60;38.50;;;;;;5040323;28;20132;-58
2022/06/21 02:01:27;;;;;;;0.68;0.10;;;27.60;38.40;;;;;;5033291;28;20474;-57
2022/06/21 02:03:57;;;;;;;2.95;0.20;;;27.60;38.60;;;;;;5032791;28;20045;-59
2022/06/21 02:06:30;;;;;;;2.80;0.30;;;27.50;38.70;;;;;;5033272;28;20087;-57
2022/06/21 02:09:02;;;;;;;3.58;0.38;;;27.50;38.70;;;;;;5038161;28;20045;-57
2022/06/21 02:11:35;;;;;;;1.75;0.30;;;27.50;39.50;;;;;;5045603;28;20087;-58
2022/06/21 02:17:00;;;;;;;0.35;0.30;;;27.40;39.00;;;;;;5035371;28;20049;-58
2022/06/21 02:19:32;;;;;;;0.50;0.20;;;27.40;39.00;;;;;;5035655;28;20087;-58
2022/06/21 02:22:00;;;;;;;2.45;0.93;;;27.40;39.10;;;;;;5038377;28;20098;-58
2022/06/21 02:24:29;;;;;;;1.63;0.13;;;27.40;39.10;;;;;;5034828;28;20557;-56
2022/06/21 02:26:56;;;;;;;2.40;0.32;;;27.40;39.20;;;;;;5036572;28;20422;-56
2022/06/21 02:29:25;;;;;;;0.70;0.17;;;27.30;39.00;;;;;;5039490;28;20583;-59
2022/06/21 02:31:52;;;;;;;2.20;0.20;;;27.30;39.20;;;;;;5038583;28;20045;-59
2022/06/21 02:34:24;;;;;;;1.58;0.63;;;27.30;39.20;;;;;;5042309;28;20077;-57
2022/06/21 02:36:55;;;;;;;2.22;0.28;;;27.30;39.20;;;;;;5032618;28;20099;-62
2022/06/21 02:39:25;;;;;;;1.50;0.20;;;27.30;39.20;;;;;;5030285;28;20040;-59
2022/06/21 02:41:57;;;;;;;4.05;0.22;;;27.30;39.30;;;;;;5038900;28;20524;-59
2022/06/21 02:44:30;;;;;;;1.08;0.28;;;27.30;39.30;;;;;;5034563;28;20048;-57
2022/06/21 02:47:03;;;;;;;3.88;0.20;;;27.20;39.40;;;;;;5039239;28;20045;-55
2022/06/21 02:49:37;;;;;;;2.58;0.30;;;27.20;39.40;;;;;;5034097;28;20514;-59
2022/06/21 02:52:09;;;;;;;0.35;0.10;;;27.20;39.40;;;;;;5039978;28;20111;-56
2022/06/21 02:54:43;;;;;;;1.27;0.10;;;27.20;39.50;;;;;;5030065;28;20230;-59
2022/06/21 02:57:15;;;;;;;2.88;0.30;;;27.20;39.60;;;;;;5032982;28;20124;-56
2022/06/21 02:59:45;;;;;;;0.63;0.13;;;27.20;39.60;;;;;;5039562;28;20069;-57
2022/06/21 03:02:14;;;;;;;4.68;0.82;;;27.10;39.60;;;;;;5034606;28;20048;-58
2022/06/21 03:04:44;;;;;;;1.45;0.35;;;27.20;39.70;;;;;;5039409;28;20064;-57
2022/06/21 03:07:17;;;;;;;1.17;0.40;;;27.10;39.60;;;;;;5032863;28;20567;-56
2022/06/21 03:09:44;;;;;;;0.70;0.30;;;27.10;39.70;;;;;;5032812;28;20048;-57
2022/06/21 03:12:17;;;;;;;1.88;0.40;;;27.10;39.70;;;;;;5041802;28;20033;-57
2022/06/21 03:14:48;;;;;;;0.85;0.10;;;27.10;39.70;;;;;;5035132;28;20061;-59
2022/06/21 03:17:18;;;;;;;1.23;0.30;;;27.10;39.90;;;;;;5031690;28;20045;-56
2022/06/21 03:19:50;;;;;;;3.67;0.93;;;27.00;39.70;;;;;;5035997;28;20037;-58
2022/06/21 03:22:20;;;;;;;0.60;0.20;;;27.10;39.90;;;;;;5034681;28;20501;-59
2022/06/21 03:24:51;;;;;;;1.23;0.20;;;27.00;39.90;;;;;;5033869;28;20040;-59
2022/06/21 03:27:25;;;;;;;0.85;0.45;;;27.00;40.00;;;;;;5031885;28;20063;-56
2022/06/21 03:29:54;;;;;;;2.47;0.50;;;27.00;40.00;;;;;;5040156;28;20060;-58
2022/06/21 03:32:22;;;;;;;1.10;0.10;;;27.00;40.00;;;;;;5032458;28;20042;-57
2022/06/21 03:34:50;;;;;;;1.02;0.20;;;27.00;40.00;;;;;;5035725;28;20090;-57
2022/06/21 03:37:18;;;;;;;1.13;0.38;;;27.00;40.00;;;;;;5033193;28;20045;-56
2022/06/21 03:42:35;;;;;;;1.65;0.20;;;27.00;40.20;;;;;;5038319;28;20041;-59
2022/06/21 03:45:11;;;;;;;0.73;0.20;;;26.90;40.20;;;;;;5033471;28;20057;-56
2022/06/21 03:47:41;;;;;;;3.95;0.32;;;26.90;40.30;;;;;;5037775;28;20673;-58
2022/06/21 03:50:13;;;;;;;0.43;0.43;;;26.90;40.50;;;;;;5031754;28;20050;-58
2022/06/21 03:52:44;;;;;;;2.05;0.30;;;26.90;40.70;;;;;;5034511;28;20037;-57
2022/06/21 03:55:25;;;;;;;1.25;0.22;;;26.90;40.80;;;;;;5036837;28;20580;-58
2022/06/21 03:57:57;;;;;;;2.83;0.30;;;26.90;41.20;;;;;;5035202;28;20413;-58
2022/06/21 04:00:30;;;;;;;1.40;0.20;;;26.90;41.30;;;;;;5026946;28;20044;-58
2022/06/21 04:03:05;;;;;;;2.45;0.40;;;26.90;41.40;;;;;;5039675;28;20128;-58
2022/06/21 04:05:36;;;;;;;0.53;0.40;;;26.80;41.50;;;;;;5034706;28;20156;-56
2022/06/21 04:08:12;;;;;;;3.13;0.35;;;26.80;41.60;;;;;;5037188;28;20053;-57
2022/06/21 04:10:47;;;;;;;4.93;0.52;;;26.80;41.90;;;;;;5035010;28;20155;-56
2022/06/21 04:13:22;;;;;;;5.15;0.50;;;26.80;42.10;;;;;;5035963;28;20045;-56
2022/06/21 04:15:56;;;;;;;0.68;0.30;;;26.80;42.30;;;;;;5032807;28;20128;-60
2022/06/21 04:18:28;;;;;;;1.88;0.30;;;26.80;42.40;;;;;;5028676;28;20041;-59
2022/06/21 04:21:02;;;;;;;4.60;0.73;;;26.80;42.60;;;;;;5034995;28;20579;-58
2022/06/21 04:23:36;;;;;;;4.03;0.60;;;26.70;42.70;;;;;;5034344;28;20415;-59
2022/06/21 04:26:09;;;;;;;2.40;0.70;;;26.70;42.80;;;;;;5035741;28;20673;-54
2022/06/21 04:28:40;;;;;;;1.05;0.22;;;26.70;42.90;;;;;;5034252;28;20044;-57
2022/06/21 04:31:15;;;;;;;1.45;0.30;;;26.70;42.90;;;;;;5032414;28;20090;-57
2022/06/21 04:33:50;;;;;;;1.08;0.73;;;26.70;43.20;;;;;;5027616;28;20041;-57
2022/06/21 04:36:24;;;;;;;1.35;0.20;;;26.70;43.30;;;;;;5029574;28;20131;-55
2022/06/21 04:38:59;;;;;;;1.25;0.28;;;26.70;43.40;;;;;;5048735;28;20387;-56
2022/06/21 04:41:31;;;;;;;1.52;0.40;;;26.60;43.50;;;;;;5042149;28;20051;-55
2022/06/21 04:44:02;;;;;;;6.70;0.50;;;26.60;43.60;;;;;;5044562;28;20118;-57
2022/06/21 04:46:36;;;;;;;1.83;0.50;;;26.60;43.60;;;;;;5040113;28;20132;-60
2022/06/21 04:49:11;;;;;;;2.53;0.30;;;26.60;43.60;;;;;;5034768;28;20065;-57
2022/06/21 04:51:42;;;;;;;2.55;0.20;;;26.60;43.70;;;;;;5033140;28;20540;-58
2022/06/21 04:54:17;;;;;;;4.30;0.57;;;26.60;43.60;;;;;;5040201;28;20064;-57
2022/06/21 04:56:51;;;;;;;0.90;0.20;;;26.50;43.40;;;;;;5050283;28;20425;-58
2022/06/21 04:59:24;;;;;;;1.80;0.20;;;26.50;43.40;;;;;;5035870;28;20053;-58
2022/06/21 05:01:54;;;;;;;1.67;0.50;;;26.50;43.50;;;;;;5041887;28;20183;-57
2022/06/21 05:04:25;;;;;;;2.17;0.73;;;26.50;43.30;;;;;;5038556;28;20080;-57
2022/06/21 05:06:56;;;;;;;0.52;0.35;;;26.50;43.50;;;;;;5036503;28;20048;-52
2022/06/21 05:09:26;;;;;;;4.05;0.20;;;26.50;43.40;;;;;;5038330;28;20282;-58
2022/06/21 05:11:59;;;;;;;3.63;1.00;;;26.50;43.70;;;;;;5043129;28;20114;-56
2022/06/21 05:14:30;;;;;;;1.65;0.35;;;26.40;43.70;;;;;;5037574;28;20140;-56
2022/06/21 05:16:58;;;;;;;0.88;0.20;;;26.40;43.70;;;;;;5037225;28;20418;-55
2022/06/21 05:19:31;;;;;;;2.55;0.20;;;26.40;43.60;;;;;;5037962;28;20108;-55
2022/06/21 05:22:04;;;;;;;1.75;0.82;;;26.40;43.70;;;;;;5033978;28;20502;-52
2022/06/21 05:24:32;;;;;;;1.65;0.20;;;26.40;43.60;;;;;;5030924;28;20100;-56
2022/06/21 05:27:16;;;;;;;0.57;0.32;;;26.40;43.70;;;;;;5035269;28;20034;-54
2022/06/21 05:29:48;;;;;;;4.25;0.75;;;26.40;43.70;;;;;;5037888;28;20045;-53
2022/06/21 05:32:21;;;;;;;0.93;0.40;;;26.40;43.60;;;;;;5036500;28;20120;-54
2022/06/21 05:34:51;;;;;;;1.95;1.25;;;26.40;43.50;;;;;;5033253;28;20104;-54
2022/06/21 05:37:29;;;;;;;3.28;0.50;;;26.30;43.50;;;;;;5036530;28;20506;-57
2022/06/21 05:39:58;;;;;;;2.92;0.25;;;26.40;43.70;;;;;;5036649;28;20120;-56
2022/06/21 05:42:28;;;;;;;1.55;0.38;;;26.30;43.50;;;;;;5040522;28;20124;-53
2022/06/21 05:45:01;;;;;;;2.30;1.67;;;26.40;44.20;;;;;;5038138;28;20037;-55
2022/06/21 05:47:34;;;;;;;2.95;0.77;;;26.40;43.80;;;;;;5035038;28;20140;-58
2022/06/21 05:50:04;;;;;;;2.25;0.30;;;26.40;43.80;;;;;;5030978;28;20128;-54
2022/06/21 05:52:35;;;;;;;3.22;1.05;;;26.40;43.80;;;;;;5035618;28;20045;-58
2022/06/21 05:55:06;;;;;;;1.92;0.30;;;26.40;43.80;;;;;;5041320;28;20052;-57
2022/06/21 05:57:47;;;;;;;5.43;0.52;;;26.40;44.00;;;;;;5043187;28;20069;-58
2022/06/21 06:00:25;;;;;;;1.90;1.00;;;26.40;44.10;;;;;;5043929;28;20139;-57
2022/06/21 06:02:59;;;;;;;0.43;0.30;;;26.40;44.00;;;;;;5044159;28;20481;-58
2022/06/21 06:05:30;;;;;;;2.97;0.50;;;26.40;44.10;;;;;;5036483;28;20042;-55
2022/06/21 06:08:02;;;;;;;2.70;0.40;;;26.40;44.00;;;;;;5035637;28;20042;-54
2022/06/21 06:10:31;;;;;;;1.85;0.38;;;26.50;44.10;;;;;;5037157;28;20132;-58
2022/06/21 06:13:02;;;;;;;2.47;0.50;;;26.40;43.90;;;;;;5043252;28;20501;-58
2022/06/21 06:15:34;;;;;;;2.40;0.30;;;26.50;44.00;;;;;;5043851;28;20123;-59
2022/06/21 06:18:09;;;;;;;3.03;0.52;;;26.50;43.80;;;;;;5033230;28;20049;-58
2022/06/21 06:20:40;;;;;;;3.88;0.60;;;26.50;43.90;;;;;;5035307;28;20056;-56
2022/06/21 06:23:15;;;;;;;3.63;0.43;;;26.50;43.90;;;;;;5033141;28;20048;-59
2022/06/21 06:25:46;;;;;;;0.60;0.60;;;26.50;43.80;;;;;;5037134;28;20037;-53
2022/06/21 06:28:21;;;;;;;6.70;0.80;;;26.50;43.80;;;;;;5035151;28;20451;-59
2022/06/21 06:30:53;;;;;;;1.27;1.17;;;26.50;43.50;;;;;;5035173;28;20755;-52
2022/06/21 06:33:25;;;;;;;0.80;0.35;;;26.50;44.10;;;;;;5038182;28;20069;-55
2022/06/21 06:35:57;;;;;;;2.17;0.40;;;26.50;43.50;;;;;;5046613;28;20496;-54
2022/06/21 06:38:24;;;;;;;2.05;0.20;;;26.50;43.80;;;;;;5046583;28;20037;-55
2022/06/21 06:40:55;;;;;;;1.25;0.57;;;26.60;43.90;;;;;;5042789;28;20522;-54
2022/06/21 06:43:29;;;;;;;2.17;0.28;;;26.90;43.70;;;;;;5045765;28;20387;-56
2022/06/21 06:45:58;;;;;;;2.45;0.90;;;27.10;43.20;;;;;;5047777;28;20068;-58
2022/06/21 06:48:31;;;;;;;1.50;0.20;;;27.50;42.70;;;;;;5046469;28;20048;-53
2022/06/21 06:51:05;;;;;;;1.30;0.30;;;27.80;41.90;;;;;;5042768;28;20513;-50
2022/06/21 06:53:39;;;;;;;3.40;0.30;;;28.10;41.10;;;;;;5045701;28;20486;-52
2022/06/21 06:56:13;;;;;;;1.35;0.30;;;28.60;40.50;;;;;;5043711;28;20539;-56
2022/06/21 06:58:45;;;;;;;2.15;0.88;;;28.80;40.00;;;;;;5048468;28;20036;-55
2022/06/21 07:01:15;;;;;;;1.75;0.30;;;29.20;39.80;;;;;;5043717;28;20067;-59
2022/06/21 07:03:48;;;;;;;1.75;0.30;;;29.50;39.30;;;;;;5046583;28;20076;-57
2022/06/21 07:06:19;;;;;;;3.83;0.30;;;29.80;38.80;;;;;;5042580;28;20099;-60
2022/06/21 07:08:52;;;;;;;2.38;0.32;;;30.10;38.30;;;;;;5047081;28;20048;-61
2022/06/21 07:11:24;;;;;;;2.55;0.73;;;30.30;37.80;;;;;;5041662;28;20051;-58
2022/06/21 07:13:52;;;;;;;1.17;0.55;;;30.60;37.40;;;;;;5045551;28;20693;-58
2022/06/21 07:16:24;;;;;;;1.02;0.90;;;30.80;37.80;;;;;;5045376;28;20047;-53
2022/06/21 07:18:57;;;;;;;2.55;0.50;;;31.00;37.00;;;;;;5039825;28;20574;-57
2022/06/21 07:21:25;;;;;;;2.55;0.30;;;31.10;36.70;;;;;;5039406;28;20041;-58
2022/06/21 07:23:53;;;;;;;1.35;0.20;;;31.30;36.50;;;;;;5043297;28;20087;-56
2022/06/21 07:26:29;;;;;;;2.85;0.43;;;31.40;36.10;;;;;;5038465;28;20444;-59
2022/06/21 07:29:00;;;;;;;3.05;0.68;;;31.60;36.00;;;;;;5037213;28;20049;-55
2022/06/21 07:31:31;;;;;;;4.50;0.50;;;31.70;35.80;;;;;;5039338;28;20036;-55
2022/06/21 07:34:04;;;;;;;0.45;0.43;;;31.80;35.80;;;;;;5043168;28;20051;-55
2022/06/21 07:36:36;;;;;;;1.55;0.57;;;31.90;35.60;;;;;;5046020;28;20072;-58
2022/06/21 07:39:09;;;;;;;0.57;0.55;;;32.00;35.60;;;;;;5040729;28;20126;-55
2022/06/21 07:41:42;;;;;;;1.85;0.20;;;32.20;35.60;;;;;;5038293;28;20320;-55
2022/06/21 07:44:28;;;;;;;6.50;0.30;;;32.30;36.00;;;;;;5040591;28;20389;-60
2022/06/21 07:46:59;;;;;;;1.25;0.50;;;32.30;35.10;;;;;;5043780;28;20935;-58
2022/06/21 07:49:32;;;;;;;2.85;0.20;;;32.40;35.10;;;;;;5042217;28;20044;-56
2022/06/21 07:52:05;;;;;;;1.05;0.32;;;32.50;35.10;;;;;;5041041;28;20527;-58
2022/06/21 07:54:36;;;;;;;1.90;0.82;;;32.60;35.00;;;;;;5043985;28;20041;-58
2022/06/21 07:57:08;;;;;;;3.60;0.52;;;32.70;35.00;;;;;;5043981;28;20047;-60
2022/06/21 07:59:39;;;;;;;0.60;0.40;;;32.80;34.90;;;;;;5039501;28;20050;-60
2022/06/21 08:07:57;;;;;;;1.75;0.82;;;33.10;34.60;;;;;;5042647;28;20114;-60
2022/06/21 08:10:28;;;;;;;2.75;0.38;;;33.20;34.40;;;;;;5045660;28;20657;-56
2022/06/21 08:12:56;;;;;;;1.17;0.60;;;33.30;34.90;;;;;;5043172;28;20055;-51
2022/06/21 08:15:26;;;;;;;3.22;0.60;;;33.40;34.20;;;;;;5040536;28;20037;-55
2022/06/21 08:17:59;;;;;;;5.45;0.47;;;33.50;34.20;;;;;;5043291;28;20049;-59
2022/06/21 08:20:32;;;;;;;4.10;0.55;;;33.60;34.10;;;;;;5040382;28;20052;-59
2022/06/21 08:23:05;;;;;;;2.55;1.08;;;33.60;34.00;;;;;;5044458;28;20041;-51
2022/06/21 08:25:37;;;;;;;2.13;0.60;;;33.70;34.00;;;;;;5045774;28;20101;-50
2022/06/21 08:28:14;;;;;;;0.50;0.50;;;33.70;33.90;;;;;;5041072;28;20065;-52
2022/06/21 08:30:51;;;;;;;3.40;0.73;;;33.70;34.00;;;;;;5046862;28;20505;-54
2022/06/21 08:33:24;;;;;;;1.63;0.98;;;33.70;34.20;;;;;;5045097;28;20482;-53
2022/06/21 08:35:57;;;;;;;3.42;0.80;;;33.70;34.20;;;;;;5049998;28;20072;-53
2022/06/21 08:38:30;;;;;;;1.23;0.80;;;33.70;34.30;;;;;;5037784;28;20150;-50
2022/06/21 08:41:55;;;;;;;1.45;0.32;;;33.70;34.20;;;;;;5036597;28;20040;-50
2022/06/21 08:44:45;;;;;;;1.13;0.57;;;33.70;34.10;;;;;;5042712;28;20049;-50
2022/06/21 08:47:42;;;;;;;4.47;0.25;;;33.70;34.20;;;;;;5040950;28;20091;-52
2022/06/21 08:50:36;;;;;;;2.47;1.15;;;33.80;34.40;;;;;;5038059;28;20041;-53
2022/06/21 08:53:29;;;;;;;0.77;0.50;;;33.80;34.30;;;;;;5041209;28;20038;-54
2022/06/21 08:56:03;;;;;;;4.03;0.70;;;33.90;34.30;;;;;;5043015;28;20087;-54
2022/06/21 08:58:45;;;;;;;3.10;0.57;;;33.90;34.20;;;;;;5046501;28;20127;-53
2022/06/21 09:01:20;;;;;;;3.03;0.60;;;34.00;34.10;;;;;;5042410;28;20299;-51
2022/06/21 09:04:02;;;;;;;1.45;0.70;;;34.20;34.20;;;;;;5039628;28;20053;-53
2022/06/21 09:06:45;;;;;;;3.03;0.60;;;34.30;34.30;;;;;;5040893;28;20053;-55
2022/06/21 09:09:43;;;;;;;4.32;0.60;;;34.30;34.60;;;;;;5042272;28;20056;-53
2022/06/21 09:12:23;;;;;;;2.75;1.02;;;34.40;33.90;;;;;;5034249;28;20057;-54
2022/06/21 09:15:08;;;;;;;1.92;0.40;;;34.50;34.10;;;;;;5041484;28;20076;-56
2022/06/21 09:17:53;;;;;;;1.15;0.70;;;34.60;34.70;;;;;;5039543;28;20049;-52
2022/06/21 09:20:33;;;;;;;2.85;1.13;;;34.70;34.10;;;;;;5040210;28;20049;-52
2022/06/21 09:23:07;;;;;;;3.35;0.52;;;34.70;33.80;;;;;;5036262;28;20060;-52
2022/06/21 09:25:46;;;;;;;1.48;0.80;;;34.70;33.80;;;;;;5045305;28;20120;-52
2022/06/21 09:28:23;;;;;;;3.58;1.20;;;34.80;34.00;;;;;;5046517;28;20119;-59
2022/06/21 09:30:57;;;;;;;4.90;1.13;;;34.80;33.90;;;;;;5049342;28;20126;-68
2022/06/21 09:33:31;;;;;;;2.50;0.70;;;34.80;33.90;;;;;;5047509;28;20034;-65
2022/06/21 09:36:11;;;;;;;3.13;1.50;;;34.80;33.90;;;;;;5043153;28;20152;-64
2022/06/21 09:38:49;;;;;;;2.38;1.23;;;34.80;33.90;;;;;;5047321;28;20049;-63
2022/06/21 09:41:24;;;;;;;0.63;0.63;;;34.80;33.90;;;;;;5044526;28;20045;-49
2022/06/21 09:44:05;;;;;;;1.73;0.52;;;34.80;34.00;;;;;;5047924;28;20091;-63
2022/06/21 09:46:42;;;;;;;3.40;0.50;;;34.80;34.00;;;;;;5044442;28;20036;-61
2022/06/21 09:49:19;;;;;;;1.48;1.00;;;34.80;34.20;;;;;;5044039;28;20048;-58
2022/06/21 09:51:54;;;;;;;2.17;2.08;;;34.80;34.20;;;;;;5046998;28;20071;-59
2022/06/21 09:54:32;;;;;;;5.80;0.85;;;34.90;34.10;;;;;;5046356;28;20057;-59
2022/06/21 09:57:08;;;;;;;0.98;0.40;;;34.90;34.20;;;;;;5046905;28;20091;-59
2022/06/21 09:59:46;;;;;;;1.58;0.80;;;34.90;34.30;;;;;;5045554;28;20087;-53
2022/06/21 10:02:22;;;;;;;1.55;1.17;;;34.90;34.30;;;;;;5041625;28;20164;-61
2022/06/21 10:04:59;;;;;;;1.05;1.05;;;34.90;34.30;;;;;;5043298;28;20133;-54
2022/06/21 10:07:37;;;;;;;2.40;1.00;;;35.00;34.30;;;;;;5052377;28;20482;-54
2022/06/21 10:10:26;;;;;;;5.25;0.68;;;35.00;34.10;;;;;;5041444;28;20496;-64
2022/06/21 10:13:02;;;;;;;1.77;1.00;;;35.00;34.30;;;;;;5044602;28;20048;-57
2022/06/21 10:15:39;;;;;;;1.85;0.65;;;35.10;34.30;;;;;;5044886;28;20046;-61
2022/06/21 10:18:31;;;;;;;1.20;0.93;;;35.10;34.30;;;;;;5044902;28;20048;-47
2022/06/21 10:21:30;;;;;;;1.27;1.15;;;35.10;34.20;;;;;;5044579;28;20707;-51
2022/06/21 10:24:25;;;;;;;3.85;1.50;;;35.10;34.50;;;;;;5000474;28;20149;-52
2022/06/21 10:27:15;;;;;;;3.28;0.68;;;35.10;34.10;;;;;;4999148;28;20050;-52
2022/06/21 10:30:12;;;;;;;3.13;1.02;;;35.10;34.30;;;;;;4981975;28;20137;-53
2022/06/21 10:32:51;;;;;;;4.15;0.95;;;35.10;34.40;;;;;;4993996;28;20061;-53
2022/06/21 10:35:36;;;;;;;0.90;0.85;;;35.10;34.30;;;;;;4999972;28;20042;-47
2022/06/21 10:38:20;;;;;;;7.60;1.33;;;35.20;34.40;;;;;;5003321;28;20152;-49
2022/06/21 10:41:02;;;;;;;1.50;0.73;;;35.20;34.40;;;;;;4998469;28;20105;-56
2022/06/21 10:44:08;;;;;;;1.33;1.23;;;35.20;34.30;;;;;;4981877;28;20080;-51
2022/06/21 10:46:39;;;;;;;3.63;1.00;;;35.30;34.40;;;;;;4994489;28;20605;-56
2022/06/21 10:49:25;;;;;;;3.13;0.95;;;35.30;34.60;;;;;;4999883;28;20054;-54
2022/06/21 10:52:19;;;;;;;1.55;0.70;;;35.30;34.50;;;;;;4992225;28;20046;-55
2022/06/21 10:55:00;;;;;;;1.77;0.90;;;35.40;34.50;;;;;;4991806;28;20041;-55
2022/06/21 10:57:38;;;;;;;1.52;0.65;;;35.40;34.50;;;;;;4991134;28;20687;-56
2022/06/21 11:03:16;;;;;;;3.35;0.70;;;35.40;34.30;;;;;;5042603;28;20053;-59
2022/06/21 11:05:49;;;;;;;6.03;0.98;;;35.50;34.30;;;;;;5039887;28;20156;-60
2022/06/21 11:08:30;;;;;;;3.10;0.80;;;35.60;34.30;;;;;;5044039;28;20099;-60
2022/06/21 11:11:03;;;;;;;0.93;0.88;;;35.60;34.50;;;;;;5039270;28;20805;-61
2022/06/21 11:13:37;;;;;;;1.95;0.85;;;35.60;34.50;;;;;;5036491;28;20048;-61
2022/06/21 11:16:12;;;;;;;2.03;0.97;;;35.70;35.00;;;;;;5043396;28;20075;-48
2022/06/21 11:18:50;;;;;;;;;;;35.80;34.10;;;;;;5042280;28;20311;-50
2022/06/21 11:21:41;;;;;;;2.55;1.02;;;35.70;34.10;;;;;;5037973;28;20035;-47
2022/06/21 11:24:19;;;;;;;20.70;5.90;;;35.80;34.40;;;;;;5039292;28;20053;-55
2022/06/21 11:26:58;;;;;;;51.28;18.30;;;35.80;34.40;;;;;;5045671;28;20043;-60
2022/06/21 11:29:35;;;;;;;62.80;24.95;;;35.70;34.50;;;;;;5041504;28;20123;-57
2022/06/21 11:32:11;;;;;;;43.47;14.88;;;35.70;35.00;;;;;;5043601;28;20053;-60
2022/06/21 11:34:45;;;;;;;32.75;12.18;;;35.60;34.70;;;;;;5041297;28;20045;-60
2022/06/21 11:37:29;;;;;;;26.48;10.15;;;35.60;34.80;;;;;;5041229;28;20040;-59
2022/06/21 11:40:06;;;;;;;23.65;9.52;;;35.70;34.60;;;;;;5038533;28;20041;-59
2022/06/21 11:42:37;;;;;;;24.08;7.25;;;35.70;34.70;;;;;;5042659;28;20045;-58
2022/06/21 11:45:25;;;;;;;17.88;6.63;;;35.80;34.80;;;;;;5040981;28;20041;-59
2022/06/21 11:48:33;;;;;;;16.83;4.75;;;35.90;35.10;;;;;;5040847;28;20057;-52
2022/06/21 11:51:18;;;;;;;11.32;5.68;;;36.00;34.90;;;;;;5040372;28;20065;-53
2022/06/21 11:54:00;;;;;;;11.90;3.05;;;36.20;35.10;;;;;;5042680;28;20052;-51
2022/06/21 11:56:34;;;;;;;5.65;2.97;;;36.20;34.70;;;;;;5042404;28;20057;-52
2022/06/21 11:59:06;;;;;;;8.73;2.83;;;36.30;34.50;;;;;;5041991;28;20091;-55
2022/06/21 12:01:38;;;;;;;6.18;2.42;;;36.40;34.50;;;;;;5043606;28;20052;-51
2022/06/21 12:04:17;;;;;;;5.90;1.55;;;36.50;34.20;;;;;;5039770;28;20107;-55
2022/06/21 12:06:54;;;;;;;7.70;1.52;;;36.60;34.00;;;;;;5039693;28;20084;-60
2022/06/21 12:09:28;;;;;;;2.08;1.33;;;36.70;34.00;;;;;;5048077;28;20051;-60
2022/06/21 12:12:17;;;;;;;4.60;1.20;;;36.80;33.80;;;;;;5042665;28;20140;-60
2022/06/21 12:14:56;;;;;;;4.40;1.60;;;36.90;34.00;;;;;;5046678;28;20045;-59
2022/06/21 12:17:38;;;;;;;0.70;0.70;;;37.00;34.00;;;;;;5039649;28;20045;-59
2022/06/21 12:20:15;;;;;;;4.22;1.02;;;37.10;34.00;;;;;;5043819;28;20136;-59
2022/06/21 12:22:46;;;;;;;1.23;0.63;;;37.20;34.10;;;;;;5035857;28;20040;-59
2022/06/21 12:25:17;;;;;;;4.05;0.98;;;37.20;33.90;;;;;;5040576;28;20041;-59
2022/06/21 12:27:45;;;;;;;1.70;0.47;;;37.30;33.90;;;;;;5039420;28;20040;-59
2022/06/21 12:30:19;;;;;;;2.65;1.00;;;37.40;34.00;;;;;;5041844;28;20061;-54
2022/06/21 12:32:47;;;;;;;3.65;1.10;;;37.50;33.80;;;;;;5047514;28;20057;-44
2022/06/21 12:35:16;;;;;;;3.72;1.50;;;37.50;33.70;;;;;;5035097;28;20141;-45
2022/06/21 12:37:48;;;;;;;6.78;0.73;;;37.40;33.80;;;;;;5035800;28;20466;-50
2022/06/21 12:40:27;;;;;;;4.00;0.85;;;37.30;33.90;;;;;;5032642;28;20107;-47
2022/06/21 12:43:18;;;;;;;2.42;0.88;;;37.10;34.30;;;;;;5041385;28;20135;-47
2022/06/21 12:46:03;;;;;;;3.63;0.75;;;36.90;34.20;;;;;;5031880;28;20046;-48
2022/06/21 12:49:02;;;;;;;1.50;0.90;;;36.70;34.70;;;;;;5030336;28;20037;-51
2022/06/21 12:51:38;;;;;;;1.60;0.70;;;36.50;34.90;;;;;;5028845;28;20065;-49
2022/06/21 12:54:32;;;;;;;3.15;0.60;;;36.20;35.60;;;;;;5029412;28;20514;-49
2022/06/21 12:57:39;;;;;;;1.67;0.57;;;36.10;35.30;;;;;;5031398;28;20046;-47
2022/06/21 13:00:15;;;;;;;5.75;1.45;;;35.90;35.20;;;;;;5037348;28;20041;-50
2022/06/21 13:03:07;;;;;;;1.25;0.60;;;35.60;35.00;;;;;;5036477;28;20399;-50
2022/06/21 13:05:40;;;;;;;2.67;0.50;;;35.40;35.10;;;;;;5036938;28;20046;-50
2022/06/21 13:08:38;;;;;;;0.55;0.52;;;35.30;35.90;;;;;;5034849;28;20076;-49
2022/06/21 13:11:20;;;;;;;2.85;0.63;;;35.20;35.70;;;;;;5039808;28;20065;-49
2022/06/21 13:14:03;;;;;;;1.20;0.40;;;35.10;36.10;;;;;;5034989;28;20033;-47
2022/06/21 13:16:40;;;;;;;1.27;0.52;;;35.00;36.40;;;;;;5034759;28;20075;-50
2022/06/21 13:19:30;;;;;;;1.05;0.45;;;34.90;36.40;;;;;;5031355;28;20057;-49
2022/06/21 13:22:28;;;;;;;1.13;0.35;;;34.70;36.00;;;;;;5033169;28;20041;-51
2022/06/21 13:25:03;;;;;;;4.38;0.77;;;34.60;36.30;;;;;;5034177;28;20513;-48
2022/06/21 13:27:56;;;;;;;5.65;0.73;;;34.40;36.20;;;;;;5030915;28;20196;-50
2022/06/21 13:30:48;;;;;;;1.15;0.30;;;34.40;36.80;;;;;;5033967;28;20041;-50
2022/06/21 13:33:19;;;;;;;4.35;0.52;;;34.30;37.00;;;;;;5036437;28;20534;-46
2022/06/21 13:36:06;;;;;;;1.00;0.50;;;34.20;37.30;;;;;;5035679;28;20037;-47
2022/06/21 13:38:45;;;;;;;1.60;0.50;;;34.20;37.40;;;;;;5035073;28;20595;-49
2022/06/21 13:44:08;;;;;;;0.90;0.20;;;34.10;37.60;;;;;;4972128;28;20496;-50